Time;durP1;ratioP1;P1;durP2;ratioP2;P2;SDS_P1;SDS_P2;PMS_P1;PMS_P2;Temp;Humidity;BMP_temperature;BMP_pressure;BME280_temperature;BME280_humidity;BME280_pressure;Samples;Min_cycle;Max_cycle;Signal;HPM_P1;HPM_P2
2023/07/01 00:01:37;;;;;;;0.70;0.50;;;;;;;19.57;100.00;99032.97;6085698;23;20017;-96
2023/07/01 00:04:03;;;;;;;0.43;0.30;;;;;;;19.32;100.00;98999.13;6133659;23;20010;-96
2023/07/01 00:06:29;;;;;;;0.65;0.52;;;;;;;19.60;100.00;99043.94;6135845;23;20010;-96
2023/07/01 00:08:54;;;;;;;3.95;2.00;;;;;;;19.36;100.00;99019.28;6142537;23;20064;-96
2023/07/01 00:11:20;;;;;;;1.00;0.88;;;;;;;19.45;100.00;99030.22;6117552;23;20076;-96
2023/07/01 00:13:46;;;;;;;0.80;0.20;;;;;;;19.65;100.00;99062.06;6120061;23;20029;-89
2023/07/01 00:16:15;;;;;;;1.15;0.70;;;;;;;19.51;100.00;99044.25;6106815;23;20056;-89
2023/07/01 00:18:41;;;;;;;0.57;0.57;;;;;;;19.62;100.00;99055.44;6078228;23;20406;-89
2023/07/01 00:21:07;;;;;;;1.45;0.90;;;;;;;19.49;100.00;99041.97;6077096;23;20092;-89
2023/07/01 00:23:33;;;;;;;0.43;0.43;;;;;;;19.51;100.00;99042.22;6101730;23;20047;-89
2023/07/01 00:25:59;;;;;;;3.63;1.05;;;;;;;19.47;100.00;99044.53;6106335;23;20084;-96
2023/07/01 00:28:25;;;;;;;2.22;0.65;;;;;;;19.50;100.00;99066.00;6139902;23;20020;-96
2023/07/01 00:30:57;;;;;;;1.03;0.93;;;;;;;19.22;100.00;99033.69;6117393;23;20037;-96
2023/07/01 00:33:22;;;;;;;1.20;0.98;;;;;;;19.12;100.00;99036.06;6112995;23;20020;-96
2023/07/01 00:35:48;;;;;;;0.50;0.50;;;;;;;19.07;100.00;99028.41;6104187;23;20014;-96
2023/07/01 00:38:14;;;;;;;0.80;0.65;;;;;;;19.02;100.00;99003.91;6111051;23;20006;-96
2023/07/01 00:40:40;;;;;;;0.75;0.75;;;;;;;18.91;100.00;98992.72;6085671;23;20360;-96
2023/07/01 00:43:06;;;;;;;0.45;0.45;;;;;;;19.07;100.00;99023.56;6106102;23;20044;-96
2023/07/01 00:45:31;;;;;;;1.10;0.90;;;;;;;19.06;100.00;99021.25;6079905;23;20082;-96
2023/07/01 00:47:57;;;;;;;0.40;0.30;;;;;;;19.07;100.00;99039.66;6131182;23;20034;-96
2023/07/01 00:50:23;;;;;;;0.25;0.22;;;;;;;18.87;100.00;99031.59;6131196;23;20425;-96
2023/07/01 00:52:51;;;;;;;1.42;1.15;;;;;;;18.72;100.00;99022.72;6110121;23;20047;-96
2023/07/01 00:55:17;;;;;;;0.70;0.43;;;;;;;18.83;100.00;99045.13;6111854;23;20042;-96
2023/07/01 00:57:43;;;;;;;0.68;0.65;;;;;;;18.68;100.00;99034.22;6087517;23;20018;-96
2023/07/01 01:00:11;;;;;;;0.45;0.45;;;;;;;18.72;100.00;99036.75;6089117;23;20018;-96
2023/07/01 01:05:23;;;;;;;3.25;1.80;;;;;;;18.64;100.00;99048.50;6143340;23;20037;-88
2023/07/01 01:08:18;;;;;;;1.33;0.95;;;;;;;18.76;100.00;99070.97;6076694;23;20443;-88
2023/07/01 01:10:47;;;;;;;4.25;0.70;;;;;;;18.66;100.00;99064.84;6076963;23;20025;-88
2023/07/01 01:13:14;;;;;;;0.45;0.45;;;;;;;18.66;100.00;99050.06;6076884;23;20017;-88
2023/07/01 01:15:40;;;;;;;0.38;0.38;;;;;;;18.70;100.00;99070.97;6101466;23;20018;-89
2023/07/01 01:18:06;;;;;;;0.63;0.57;;;;;;;18.66;100.00;99055.66;6076281;23;20416;-89
2023/07/01 01:20:33;;;;;;;1.20;0.88;;;;;;;18.63;100.00;99057.47;6101195;23;20088;-88
2023/07/01 01:23:03;;;;;;;2.28;1.13;;;;;;;18.61;100.00;99057.22;6099686;23;20014;-88
2023/07/01 01:25:39;;;;;;;0.43;0.43;;;;;;;18.66;100.00;99055.66;6105485;23;20332;-89
2023/07/01 01:28:04;;;;;;;0.80;0.77;;;;;;;18.68;100.00;99055.94;6079991;23;20436;-88
2023/07/01 01:30:31;;;;;;;0.52;0.52;;;;;;;18.66;100.00;99062.06;6100789;23;20044;-89
2023/07/01 01:32:58;;;;;;;1.15;1.00;;;;;;;18.59;100.00;99057.75;6076866;23;20321;-89
2023/07/01 01:35:25;;;;;;;0.47;0.45;;;;;;;18.65;100.00;99057.72;6101686;23;20313;-88
2023/07/01 01:38:04;;;;;;;0.77;0.73;;;;;;;18.57;100.00;99043.44;6075946;23;20072;-88
2023/07/01 01:40:33;;;;;;;0.60;0.52;;;;;;;18.56;100.00;99053.13;6125604;23;20072;-88
2023/07/01 01:43:27;;;;;;;0.22;0.22;;;;;;;18.53;100.00;99059.78;6076615;23;20080;-88
2023/07/01 01:45:54;;;;;;;0.63;0.60;;;;;;;18.27;100.00;99024.88;6121794;23;20486;-88
2023/07/01 01:48:19;;;;;;;1.67;1.05;;;;;;;18.49;100.00;99064.88;6124746;23;20443;-88
2023/07/01 01:50:48;;;;;;;0.30;0.30;;;;;;;18.32;100.00;99046.56;6076942;23;20025;-88
2023/07/01 01:53:13;;;;;;;0.57;0.52;;;;;;;18.33;100.00;99065.69;6099731;23;20014;-88
2023/07/01 01:55:39;;;;;;;1.52;1.20;;;;;;;18.33;100.00;99090.94;6100725;23;20017;-88
2023/07/01 01:58:05;;;;;;;0.95;0.95;;;;;;;18.03;100.00;99068.28;6075707;23;20387;-88
2023/07/01 02:00:34;;;;;;;0.85;0.70;;;;;;;18.17;100.00;99094.53;6077362;23;20091;-88
2023/07/01 02:03:00;;;;;;;1.35;1.05;;;;;;;18.12;100.00;99075.66;6099589;23;20451;-88
2023/07/01 02:05:26;;;;;;;0.25;0.25;;;;;;;18.14;100.00;99084.34;6077245;23;20108;-88
2023/07/01 02:07:53;;;;;;;0.80;0.52;;;;;;;17.81;100.00;99061.91;6099136;23;20045;-89
2023/07/01 02:10:19;;;;;;;0.77;0.77;;;;;;;17.97;100.00;99092.00;6100472;23;20021;-88
2023/07/01 02:12:45;;;;;;;0.60;0.52;;;;;;;17.69;100.00;99028.25;6100824;23;20009;-88
2023/07/01 02:15:12;;;;;;;0.98;0.60;;;;;;;17.75;100.00;99058.34;6076586;23;20049;-88
2023/07/01 02:17:37;;;;;;;0.20;0.20;;;;;;;17.58;100.00;99033.88;6100733;23;20017;-88
2023/07/01 02:20:04;;;;;;;0.47;0.43;;;;;;;17.62;100.00;99062.41;6100113;23;20008;-88
2023/07/01 02:22:30;;;;;;;0.38;0.38;;;;;;;17.77;100.00;99086.63;6124140;23;20017;-89
2023/07/01 02:24:56;;;;;;;0.30;0.30;;;;;;;17.46;100.00;99043.50;6100453;23;20014;-88
2023/07/01 02:27:22;;;;;;;1.27;0.85;;;;;;;17.62;100.00;99068.03;6124727;23;20013;-88
2023/07/01 02:29:49;;;;;;;0.43;0.43;;;;;;;17.76;100.00;99085.09;6076280;23;20049;-88
2023/07/01 02:32:21;;;;;;;0.70;0.60;;;;;;;17.68;100.00;99094.03;6100356;23;20084;-88
2023/07/01 02:34:46;;;;;;;0.40;0.40;;;;;;;17.52;100.00;99075.09;6076542;23;20022;-88
2023/07/01 02:37:12;;;;;;;0.70;0.70;;;;;;;17.41;100.00;99063.88;6099102;23;20113;-89
2023/07/01 02:39:38;;;;;;;0.70;0.70;;;;;;;17.36;100.00;99061.81;6076534;23;20017;-88
2023/07/01 02:42:05;;;;;;;1.27;0.75;;;;;;;17.35;100.00;99059.56;6100605;23;20006;-89
2023/07/01 02:44:30;;;;;;;1.05;0.68;;;;;;;17.54;100.00;99095.00;6099964;23;20388;-88
2023/07/01 02:46:56;;;;;;;0.28;0.28;;;;;;;17.50;100.00;99091.69;6124672;23;20026;-88
2023/07/01 02:49:22;;;;;;;0.35;0.35;;;;;;;17.29;100.00;99051.13;6099776;23;20021;-88
2023/07/01 02:51:47;;;;;;;1.00;0.85;;;;;;;17.33;100.00;99060.03;6100127;23;20447;-88
2023/07/01 02:54:13;;;;;;;0.63;0.57;;;;;;;17.33;100.00;99068.47;6099947;23;20017;-88
2023/07/01 02:56:39;;;;;;;0.50;0.50;;;;;;;17.07;100.00;99039.84;6124939;23;20009;-88
2023/07/01 02:59:04;;;;;;;0.57;0.45;;;;;;;17.13;100.00;99041.41;6123939;23;20020;-88
2023/07/01 03:01:30;;;;;;;0.70;0.70;;;;;;;17.41;100.00;99085.53;6101001;23;20470;-88
2023/07/01 03:03:56;;;;;;;0.30;0.30;;;;;;;17.20;100.00;99049.31;6124130;23;20089;-88
2023/07/01 03:06:21;;;;;;;0.65;0.40;;;;;;;17.38;100.00;99075.34;6100268;23;20463;-88
2023/07/01 03:08:47;;;;;;;0.30;0.30;;;;;;;17.13;100.00;99043.44;6099612;23;20020;-88
2023/07/01 03:11:13;;;;;;;0.63;0.52;;;;;;;17.32;100.00;99075.31;6076337;23;20790;-89
2023/07/01 03:13:38;;;;;;;0.65;0.63;;;;;;;17.25;100.00;99073.78;6124568;23;20006;-88
2023/07/01 03:16:06;;;;;;;0.68;0.68;;;;;;;17.33;100.00;99085.28;6076646;23;20017;-88
2023/07/01 03:18:33;;;;;;;1.10;1.02;;;;;;;17.33;100.00;99078.91;6100444;23;20060;-89
2023/07/01 03:21:00;;;;;;;1.02;0.93;;;;;;;17.18;100.00;99051.88;6101725;23;20021;-88
2023/07/01 03:23:30;;;;;;;0.75;0.75;;;;;;;17.23;100.00;99055.94;6077568;23;20013;-88
2023/07/01 03:25:56;;;;;;;1.40;1.30;;;;;;;17.39;100.00;99085.28;6078185;23;20021;-88
2023/07/01 03:28:21;;;;;;;0.70;0.63;;;;;;;17.22;100.00;99046.03;6077399;23;20028;-89
2023/07/01 03:30:47;;;;;;;0.30;0.30;;;;;;;17.28;100.00;99060.78;6102957;23;20021;-88
2023/07/01 03:33:13;;;;;;;1.17;1.08;;;;;;;17.17;100.00;99047.53;6101188;23;20022;-88
2023/07/01 03:35:38;;;;;;;0.35;0.35;;;;;;;17.28;100.00;99069.19;6078134;23;20020;-88
2023/07/01 03:38:04;;;;;;;3.70;1.65;;;;;;;17.33;100.00;99079.66;6100784;23;20060;-87
2023/07/01 03:40:30;;;;;;;0.45;0.43;;;;;;;17.19;100.00;99063.81;6078317;23;20401;-88
2023/07/01 03:42:56;;;;;;;0.55;0.55;;;;;;;17.32;100.00;99075.31;6101630;23;20128;-88
2023/07/01 03:45:22;;;;;;;1.05;0.57;;;;;;;17.35;100.00;99077.09;6101552;23;20433;-88
2023/07/01 03:47:47;;;;;;;1.50;0.95;;;;;;;17.44;100.00;99084.53;6077410;23;20367;-88
2023/07/01 03:50:14;;;;;;;0.43;0.43;;;;;;;17.48;100.00;99080.19;6101615;23;20230;-88
2023/07/01 03:52:40;;;;;;;0.70;0.55;;;;;;;17.47;100.00;99077.91;6077078;23;20511;-88
2023/07/01 03:55:14;;;;;;;0.65;0.60;;;;;;;17.52;100.00;99082.75;6101676;23;20021;-88
2023/07/01 03:57:40;;;;;;;0.77;0.68;;;;;;;17.55;100.00;99074.09;6128583;23;20382;-88
2023/07/01 04:00:17;;;;;;;0.50;0.50;;;;;;;17.29;100.00;99045.53;6101537;23;20025;-88
2023/07/01 04:02:44;;;;;;;1.23;0.50;;;;;;;17.55;100.00;99090.91;6128135;23;20013;-88
2023/07/01 04:05:10;;;;;;;0.98;0.65;;;;;;;17.23;100.00;99047.53;6108567;23;20383;-88
2023/07/01 04:07:37;;;;;;;0.38;0.35;;;;;;;17.40;100.00;99067.94;6126453;23;20137;-88
2023/07/01 04:10:05;;;;;;;3.78;1.08;;;;;;;17.39;100.00;99044.00;6125668;23;20013;-88
2023/07/01 04:12:32;;;;;;;0.50;0.50;;;;;;;17.46;100.00;99037.13;6102085;23;20041;-87
2023/07/01 04:14:59;;;;;;;1.98;0.63;;;;;;;17.70;100.00;99069.06;6077219;23;20017;-88
2023/07/01 04:17:24;;;;;;;0.70;0.70;;;;;;;17.71;100.00;99081.03;6101575;23;20016;-88
2023/07/01 04:19:50;;;;;;;0.82;0.82;;;;;;;17.51;100.00;99034.31;6101696;23;20017;-88
2023/07/01 04:22:16;;;;;;;0.85;0.60;;;;;;;17.69;100.00;99042.28;6076522;23;20352;-88
2023/07/01 04:24:41;;;;;;;0.40;0.40;;;;;;;17.75;100.00;99024.69;6125937;23;20092;-88
2023/07/01 04:27:07;;;;;;;1.40;1.30;;;;;;;18.05;100.00;99067.75;6102410;23;20389;-88
2023/07/01 04:29:34;;;;;;;0.95;0.95;;;;;;;18.00;100.00;99043.28;6100595;23;20017;-88
2023/07/01 04:32:00;;;;;;;1.55;1.23;;;;;;;18.21;100.00;99072.59;6125121;23;20009;-88
2023/07/01 04:34:25;;;;;;;0.68;0.68;;;;;;;18.27;100.00;99064.94;6125792;23;20009;-88
2023/07/01 04:36:53;;;;;;;2.47;0.88;;;;;;;18.06;100.00;99016.75;6076734;23;20577;-88
2023/07/01 04:39:21;;;;;;;1.83;0.85;;;;;;;18.36;100.00;99061.09;6126448;23;20013;-95
2023/07/01 04:41:47;;;;;;;2.83;0.70;;;;;;;18.20;100.00;99025.41;6104892;23;20021;-95
2023/07/01 04:44:13;;;;;;;2.10;1.88;;;;;;;18.51;100.00;99062.34;6103216;23;20010;-95
2023/07/01 04:46:39;;;;;;;1.00;0.68;;;;;;;18.50;100.00;99041.13;6080251;23;20044;-95
2023/07/01 04:49:05;;;;;;;0.25;0.25;;;;;;;18.43;100.00;99016.41;6153894;23;20017;-95
2023/07/01 04:51:32;;;;;;;1.40;0.70;;;;;;;18.60;100.00;99028.34;6103340;23;20329;-94
2023/07/01 04:53:57;;;;;;;1.63;1.10;;;;;;;18.60;100.00;99025.53;6079681;23;20026;-94
2023/07/01 04:56:25;;;;;;;0.75;0.75;;;;;;;18.68;100.00;99042.66;6104902;23;20017;-95
2023/07/01 04:58:51;;;;;;;2.03;0.45;;;;;;;18.76;100.00;99032.41;6103840;23;20040;-95
2023/07/01 05:01:17;;;;;;;1.80;1.63;;;;;;;18.68;100.00;99011.75;6103394;23;20021;-95
2023/07/01 05:03:43;;;;;;;0.55;0.55;;;;;;;18.68;100.00;99019.41;6103468;23;20013;-95
2023/07/01 05:06:09;;;;;;;0.77;0.77;;;;;;;18.80;100.00;99021.66;6103900;23;20078;-96
2023/07/01 05:08:34;;;;;;;1.85;0.93;;;;;;;19.08;100.00;99041.19;6102929;23;20093;-95
2023/07/01 05:11:00;;;;;;;1.13;0.90;;;;;;;19.05;100.00;99008.47;6128441;23;20506;-95
2023/07/01 05:13:25;;;;;;;1.55;1.23;;;;;;;19.34;100.00;99021.84;6103778;23;20013;-96
2023/07/01 05:15:51;;;;;;;1.17;1.10;;;;;;;19.90;100.00;99066.47;6103355;23;20020;-88
2023/07/01 05:18:16;;;;;;;0.50;0.50;;;;;;;19.98;100.00;99025.19;6100576;23;20013;-88
2023/07/01 05:20:42;;;;;;;7.15;1.63;;;;;;;20.37;100.00;99053.78;6101163;23;20017;-90
2023/07/01 05:23:07;;;;;;;1.85;0.77;;;;;;;20.53;100.00;99060.53;6123866;23;20009;-89
2023/07/01 05:25:33;;;;;;;1.40;1.23;;;;;;;20.63;100.00;99039.13;6125857;23;20403;-89
2023/07/01 05:27:59;;;;;;;0.43;0.43;;;;;;;20.73;100.00;99042.34;6100770;23;20010;-90
2023/07/01 05:30:24;;;;;;;1.65;0.68;;;;;;;20.89;100.00;99044.22;6125390;23;20451;-89
2023/07/01 05:32:50;;;;;;;1.40;1.30;;;;;;;21.07;100.00;99071.63;6100803;23;20021;-89
2023/07/01 05:35:15;;;;;;;1.10;1.00;;;;;;;21.03;100.00;99068.34;6076721;23;20458;-87
2023/07/01 05:37:41;;;;;;;0.55;0.55;;;;;;;21.10;100.00;99070.59;6100163;23;20529;-89
2023/07/01 05:40:07;;;;;;;0.73;0.73;;;;;;;21.20;100.00;99063.28;6076636;23;20079;-89
2023/07/01 05:42:33;;;;;;;1.35;0.95;;;;;;;21.31;100.00;99068.78;6125442;23;20432;-89
2023/07/01 05:44:58;;;;;;;1.67;1.00;;;;;;;21.47;100.00;99077.56;6100214;23;20017;-89
2023/07/01 05:47:24;;;;;;;0.93;0.90;;;;;;;21.50;100.00;99051.09;6100391;23;20013;-89
2023/07/01 05:49:50;;;;;;;0.98;0.77;;;;;;;21.58;100.00;99049.16;6100563;23;20017;-89
2023/07/01 05:52:15;;;;;;;0.60;0.60;;;;;;;21.83;100.00;99067.50;6099793;23;20274;-90
2023/07/01 05:54:41;;;;;;;3.03;0.95;;;;;;;21.77;100.00;99078.88;6124968;23;20428;-89
2023/07/01 05:57:06;;;;;;;1.55;1.35;;;;;;;21.85;100.00;99070.53;6076468;23;20111;-89
2023/07/01 05:59:32;;;;;;;1.05;0.98;;;;;;;;;;6100251;23;20010;-89
2023/07/01 06:01:57;;;;;;;0.73;0.73;;;;;;;21.76;100.00;99049.13;6150915;23;20017;-89
2023/07/01 06:04:23;;;;;;;0.47;0.47;;;;;;;22.15;100.00;99076.75;6099931;23;20020;-90
2023/07/01 06:06:48;;;;;;;0.63;0.63;;;;;;;22.24;100.00;99081.97;6099885;23;20444;-89
2023/07/01 06:09:17;;;;;;;2.40;1.02;;;;;;;22.47;100.00;99084.41;6124902;23;20014;-90
2023/07/01 06:11:43;;;;;;;0.45;0.45;;;;;;;22.36;100.00;99062.00;6125128;23;20013;-89
2023/07/01 06:14:08;;;;;;;1.38;1.25;;;;;;;22.44;100.00;99086.25;6075917;23;20270;-89
2023/07/01 06:16:34;;;;;;;1.05;0.82;;;;;;;22.41;100.00;99050.59;6076724;23;20017;-90
2023/07/01 06:18:59;;;;;;;0.75;0.75;;;;;;;22.60;100.00;99073.88;6100287;23;20096;-89
2023/07/01 06:21:28;;;;;;;0.73;0.73;;;;;;;22.71;100.00;99070.84;6157015;23;19997;-96
2023/07/01 06:23:55;;;;;;;0.85;0.85;;;;;;;22.87;100.00;99083.13;6143159;23;20010;-96
2023/07/01 06:26:21;;;;;;;1.08;0.38;;;;;;;22.85;100.00;99060.28;6145590;23;20014;-96
2023/07/01 06:28:47;;;;;;;0.95;0.77;;;;;;;22.94;100.00;99068.31;6144655;23;20017;-96
2023/07/01 06:31:13;;;;;;;2.08;1.15;;;;;;;22.63;100.00;99024.72;6119766;23;20018;-96
2023/07/01 06:33:39;;;;;;;1.83;0.88;;;;;;;22.98;100.00;99077.25;6142274;23;20005;-96
2023/07/01 06:36:06;;;;;;;2.03;1.15;;;;;;;22.72;100.00;99032.03;6144281;23;20033;-96
2023/07/01 06:38:32;;;;;;;1.20;0.88;;;;;;;22.91;100.00;99043.97;6144069;23;20020;-95
2023/07/01 06:40:58;;;;;;;1.13;1.02;;;;;;;23.01;100.00;99069.75;6121342;23;20002;-96
2023/07/01 06:43:24;;;;;;;1.15;0.95;;;;;;;23.21;100.00;99075.44;6123107;23;20041;-96
2023/07/01 06:45:54;;;;;;;1.27;1.10;;;;;;;23.09;100.00;99062.84;6125922;23;20009;-96
2023/07/01 06:48:20;;;;;;;1.58;1.30;;;;;;;23.21;100.00;99083.94;6142477;23;20811;-89
2023/07/01 06:50:45;;;;;;;1.20;1.10;;;;;;;23.36;100.00;99099.59;6125396;23;20096;-89
2023/07/01 06:53:11;;;;;;;0.65;0.57;;;;;;;23.06;100.00;99083.75;6099211;23;20352;-89
2023/07/01 06:55:37;;;;;;;0.60;0.50;;;;;;;23.11;100.00;99077.22;6078897;23;20012;-89
2023/07/01 06:58:02;;;;;;;1.27;1.05;;;;;;;22.87;100.00;99056.91;6102030;23;20414;-90
2023/07/01 07:00:29;;;;;;;1.27;0.70;;;;;;;23.02;100.00;99091.81;6102063;23;20076;-90
2023/07/01 07:02:55;;;;;;;0.90;0.70;;;;;;;23.12;100.00;99103.44;6078490;23;20014;-89
2023/07/01 07:05:23;;;;;;;3.45;2.03;;;;;;;23.12;100.00;99098.56;6102421;23;20044;-91
2023/07/01 07:07:49;;;;;;;1.27;0.93;;;;;;;23.14;100.00;99093.09;6126114;23;20092;-89
2023/07/01 07:10:15;;;;;;;0.50;0.50;;;;;;;23.11;100.00;99094.19;6101839;23;20419;-90
2023/07/01 07:12:40;;;;;;;1.42;1.13;;;;;;;23.04;100.00;99080.72;6078399;23;20033;-89
2023/07/01 07:15:06;;;;;;;2.28;1.58;;;;;;;23.09;100.00;99070.59;6101873;23;20343;-90
2023/07/01 07:17:33;;;;;;;0.95;0.95;;;;;;;23.14;100.00;99084.63;6126637;23;20049;-89
2023/07/01 07:19:58;;;;;;;1.10;1.00;;;;;;;23.26;100.00;99076.63;6101966;23;20013;-90
2023/07/01 07:22:24;;;;;;;0.60;0.60;;;;;;;23.67;100.00;99110.75;6125872;23;20025;-90
2023/07/01 07:24:50;;;;;;;1.23;1.13;;;;;;;23.72;100.00;99097.75;6102455;23;20006;-89
2023/07/01 07:27:15;;;;;;;0.98;0.75;;;;;;;23.63;100.00;99073.50;6152381;23;20020;-88
2023/07/01 07:29:41;;;;;;;1.60;1.40;;;;;;;23.82;100.00;99098.81;6151835;23;20014;-89
2023/07/01 07:32:07;;;;;;;1.77;1.30;;;;;;;23.81;100.00;99094.47;6126556;23;20067;-90
2023/07/01 07:34:32;;;;;;;0.77;0.77;;;;;;;23.90;100.00;99099.63;6153053;23;20029;-89
2023/07/01 07:36:58;;;;;;;1.35;1.25;;;;;;;23.93;100.00;99109.88;6101168;23;20101;-90
2023/07/01 07:39:24;;;;;;;1.48;1.33;;;;;;;23.88;100.00;99076.78;6077609;23;20357;-89
2023/07/01 07:41:52;;;;;;;1.48;1.05;;;;;;;23.94;100.00;99094.38;6126544;23;20009;-90
2023/07/01 07:44:18;;;;;;;0.68;0.68;;;;;;;24.06;100.00;99092.81;6077699;23;20021;-90
2023/07/01 07:46:44;;;;;;;1.13;1.02;;;;;;;24.24;100.00;99096.00;6128482;23;20013;-94
2023/07/01 07:49:13;;;;;;;0.73;0.70;;;;;;;24.03;98.99;99059.91;6118209;23;20325;-96
2023/07/01 07:51:39;;;;;;;1.52;0.95;;;;;;;24.10;98.90;99072.66;6150973;23;19998;-96
2023/07/01 07:54:05;;;;;;;1.25;0.88;;;;;;;24.05;99.09;99079.97;6151419;23;20030;-96
2023/07/01 07:56:31;;;;;;;0.70;0.70;;;;;;;24.02;97.79;99046.34;6102483;23;20013;-96
2023/07/01 07:58:57;;;;;;;1.55;1.33;;;;;;;24.38;100.00;99060.63;6127301;23;20044;-96
2023/07/01 08:01:23;;;;;;;1.05;0.98;;;;;;;24.44;96.28;99052.72;6151682;23;20002;-96
2023/07/01 08:03:49;;;;;;;0.57;0.45;;;;;;;24.81;95.04;99069.22;6151523;23;20009;-96
2023/07/01 08:06:15;;;;;;;1.00;0.98;;;;;;;25.08;93.51;99090.34;6174727;23;20001;-96
2023/07/01 08:08:41;;;;;;;1.33;1.10;;;;;;;24.96;91.87;99057.19;6126808;23;20009;-96
2023/07/01 08:11:06;;;;;;;2.13;1.50;;;;;;;25.18;88.63;99081.34;6127803;23;20009;-96
2023/07/01 08:13:33;;;;;;;2.53;1.60;;;;;;;25.39;90.29;99087.66;6102938;23;20009;-96
2023/07/01 08:15:58;;;;;;;0.70;0.70;;;;;;;25.27;86.02;99041.06;6137273;23;20009;-90
2023/07/01 08:18:24;;;;;;;3.20;1.63;;;;;;;25.52;85.83;99078.97;6077233;23;20113;-90
2023/07/01 08:20:50;;;;;;;3.88;1.30;;;;;;;25.35;86.62;99064.56;6078039;23;20384;-89
2023/07/01 08:23:16;;;;;;;0.73;0.70;;;;;;;25.29;86.04;99081.75;6100691;23;20009;-90
2023/07/01 08:25:42;;;;;;;1.10;1.00;;;;;;;25.31;86.93;99032.94;6102155;23;20108;-90
2023/07/01 08:28:08;;;;;;;1.33;1.15;;;;;;;25.58;87.24;99064.66;6100528;23;20002;-89
2023/07/01 08:30:34;;;;;;;1.38;1.23;;;;;;;25.53;85.79;99040.78;6101540;23;20068;-90
2023/07/01 08:33:01;;;;;;;1.15;0.90;;;;;;;25.38;85.32;99041.47;6124236;23;20023;-96
2023/07/01 08:35:29;;;;;;;0.47;0.47;;;;;;;25.37;85.10;99034.28;6096830;23;20109;-96
2023/07/01 08:37:55;;;;;;;1.27;1.17;;;;;;;25.58;84.80;99030.56;6120851;23;20452;-96
2023/07/01 08:40:21;;;;;;;0.63;0.55;;;;;;;25.55;84.79;99021.13;6121940;23;20041;-96
2023/07/01 08:42:59;;;;;;;0.90;0.90;;;;;;;25.83;82.97;99062.81;6090314;23;20002;-89
2023/07/01 08:45:25;;;;;;;1.42;1.33;;;;;;;25.80;83.34;99076.03;6096404;23;20014;-90
2023/07/01 08:47:59;;;;;;;1.20;1.10;;;;;;;25.62;81.40;99062.19;6072277;23;20318;-90
2023/07/01 08:50:29;;;;;;;0.70;0.60;;;;;;;25.72;84.85;99069.59;6096581;23;20360;-89
2023/07/01 08:53:01;;;;;;;1.23;1.13;;;;;;;25.62;84.38;99060.13;6071837;23;20022;-90
2023/07/01 08:55:28;;;;;;;1.05;0.93;;;;;;;25.41;85.11;99040.34;6072709;23;20013;-90
2023/07/01 08:57:54;;;;;;;0.55;0.50;;;;;;;25.62;85.96;99065.03;6095974;23;20018;-89
2023/07/01 09:00:19;;;;;;;1.05;0.95;;;;;;;25.79;87.70;99056.75;6072048;23;20424;-90
2023/07/01 09:02:45;;;;;;;1.10;0.82;;;;;;;25.75;83.17;99034.41;6071974;23;20432;-90
2023/07/01 09:05:11;;;;;;;1.80;1.33;;;;;;;26.20;81.57;99055.66;6048092;23;20010;-90
2023/07/01 09:07:37;;;;;;;1.10;1.00;;;;;;;26.43;80.50;99025.88;6071726;23;20029;-90
2023/07/01 09:10:03;;;;;;;0.88;0.85;;;;;;;26.73;74.92;99039.25;6095735;23;20017;-90
2023/07/01 09:12:32;;;;;;;1.08;0.70;;;;;;;26.99;75.94;99071.47;6048107;23;20085;-90
2023/07/01 09:15:06;;;;;;;0.90;0.88;;;;;;;27.15;73.51;99067.22;6071441;23;20022;-90
2023/07/01 09:17:36;;;;;;;1.17;0.75;;;;;;;27.27;69.84;99056.94;6096187;23;20021;-90
2023/07/01 09:20:07;;;;;;;1.20;0.95;;;;;;;27.45;71.33;99021.53;6071702;23;20088;-89
2023/07/01 09:22:34;;;;;;;0.73;0.73;;;;;;;27.99;68.97;99027.63;6071440;23;20018;-90
2023/07/01 09:24:59;;;;;;;1.05;0.98;;;;;;;28.71;65.81;99050.97;6095612;23;20028;-90
2023/07/01 09:27:39;;;;;;;1.63;1.48;;;;;;;29.18;61.25;99029.88;6048381;23;20105;-91
2023/07/01 09:30:28;;;;;;;1.33;1.20;;;;;;;29.31;59.33;99059.44;6122690;23;20044;-91
2023/07/01 09:33:12;;;;;;;1.27;1.17;;;;;;;28.58;59.03;99057.00;6072203;23;20396;-90
2023/07/01 09:35:45;;;;;;;0.75;0.75;;;;;;;28.21;63.01;99060.94;6073002;23;20065;-90
2023/07/01 09:38:10;;;;;;;1.02;0.93;;;;;;;27.56;66.41;99072.38;6046934;23;20018;-90
2023/07/01 09:40:36;;;;;;;0.88;0.85;;;;;;;27.62;67.88;99052.97;6048203;23;20014;-91
2023/07/01 09:43:02;;;;;;;1.63;1.48;;;;;;;28.06;65.72;99072.44;6047490;23;20014;-88
2023/07/01 09:45:27;;;;;;;1.88;1.10;;;;;;;28.64;60.33;99051.78;6072202;23;20017;-90
2023/07/01 09:47:53;;;;;;;1.67;1.55;;;;;;;29.05;58.70;99055.16;6072052;23;20006;-90
2023/07/01 09:50:28;;;;;;;1.45;1.35;;;;;;;29.00;57.31;99053.31;6095770;23;20014;-90
2023/07/01 09:52:55;;;;;;;1.55;1.38;;;;;;;28.66;58.61;99054.81;6047683;23;20013;-91
2023/07/01 09:55:21;;;;;;;0.68;0.68;;;;;;;28.26;61.56;99051.41;6095314;23;20006;-90
2023/07/01 09:57:52;;;;;;;1.02;0.93;;;;;;;27.79;62.65;99038.81;6113845;23;20016;-96
2023/07/01 10:00:20;;;;;;;1.20;1.15;;;;;;;28.03;62.44;99030.84;6123491;23;20014;-96
2023/07/01 10:02:47;;;;;;;1.88;1.17;;;;;;;28.23;59.26;99018.34;6099896;23;20010;-96
2023/07/01 10:05:14;;;;;;;0.73;0.73;;;;;;;28.37;58.28;99016.69;6100277;23;20042;-96
2023/07/01 10:07:40;;;;;;;1.73;1.42;;;;;;;28.14;62.45;99010.44;6102098;23;20042;-96
2023/07/01 10:10:21;;;;;;;1.38;1.25;;;;;;;27.81;61.63;99012.59;6126579;23;20014;-96
2023/07/01 10:12:48;;;;;;;6.22;1.63;;;;;;;27.73;62.58;99063.19;6080577;23;20013;-96
2023/07/01 10:17:50;;;;;;;2.03;1.42;;;;;;;27.66;62.05;99046.91;6070025;23;20451;-91
2023/07/01 10:20:26;;;;;;;1.30;1.20;;;;;;;27.73;62.92;99049.69;6014927;23;20086;-92
2023/07/01 10:22:54;;;;;;;1.95;1.20;;;;;;;27.75;62.55;99049.84;6061817;23;20023;-91
2023/07/01 10:25:29;;;;;;;1.55;1.25;;;;;;;27.69;63.20;99046.50;6014632;23;20230;-91
2023/07/01 10:27:59;;;;;;;1.95;0.77;;;;;;;27.54;63.37;99055.09;6039110;23;20015;-91
2023/07/01 10:30:25;;;;;;;0.93;0.75;;;;;;;27.61;62.42;99050.72;6037953;23;20337;-91
2023/07/01 10:32:51;;;;;;;1.38;1.13;;;;;;;27.51;62.08;99041.28;6062340;23;20015;-91
2023/07/01 10:35:16;;;;;;;0.88;0.88;;;;;;;27.60;62.39;99040.66;6086205;23;20015;-91
2023/07/01 10:37:43;;;;;;;1.25;1.08;;;;;;;27.73;62.72;99052.53;6085781;23;20397;-91
2023/07/01 10:40:27;;;;;;;1.05;0.90;;;;;;;27.92;64.66;99052.03;6038073;23;20006;-90
2023/07/01 10:43:22;;;;;;;1.67;1.10;;;;;;;27.83;63.38;99044.09;6063835;23;20026;-92
2023/07/01 10:46:07;;;;;;;0.77;0.77;;;;;;;27.88;65.02;99048.81;6038631;23;20007;-92
2023/07/01 10:48:43;;;;;;;1.27;1.23;;;;;;;27.52;64.43;99029.31;6063659;23;20015;-91
2023/07/01 10:51:10;;;;;;;0.95;0.88;;;;;;;27.77;65.23;99047.19;6038171;23;20026;-92
2023/07/01 10:53:55;;;;;;;1.88;1.00;;;;;;;27.70;62.47;99045.13;6037708;23;20339;-92
2023/07/01 10:56:21;;;;;;;1.95;0.68;;;;;;;27.74;62.31;99048.34;5991971;23;20011;-93
2023/07/01 10:59:22;;;;;;;1.25;1.10;;;;;;;27.96;62.35;99028.81;6063077;23;20011;-91
2023/07/01 11:01:51;;;;;;;2.22;1.08;;;;;;;28.18;60.58;99039.31;6026291;23;20096;-92
2023/07/01 11:04:19;;;;;;;2.33;1.83;;;;;;;28.46;59.02;99013.19;6090051;23;20296;-92
2023/07/01 11:06:54;;;;;;;0.85;0.85;;;;;;;28.51;58.32;99026.44;6066246;23;20018;-92
2023/07/01 11:09:32;;;;;;;1.27;0.80;;;;;;;28.48;57.39;99041.88;6115025;23;20019;-92
2023/07/01 11:11:59;;;;;;;1.30;1.20;;;;;;;28.22;57.71;99033.94;6043290;23;20038;-92
2023/07/01 11:14:36;;;;;;;2.00;1.80;;;;;;;27.95;59.29;99021.59;6091938;23;20006;-92
2023/07/01 11:17:06;;;;;;;1.48;1.17;;;;;;;27.78;62.11;99028.00;6082607;23;20234;-92
2023/07/01 11:19:32;;;;;;;1.10;1.00;;;;;;;27.88;63.20;99008.91;6090845;23;20049;-91
2023/07/01 11:21:58;;;;;;;1.60;1.50;;;;;;;28.06;61.82;99007.66;6091854;23;20060;-93
2023/07/01 11:24:24;;;;;;;1.35;1.13;;;;;;;28.02;62.05;98986.59;6090715;23;20006;-92
2023/07/01 11:26:50;;;;;;;1.02;0.93;;;;;;;27.86;61.10;99013.69;6067204;23;20026;-91
2023/07/01 11:29:17;;;;;;;1.65;1.10;;;;;;;27.84;61.26;99011.41;6090245;23;20120;-93
2023/07/01 11:31:43;;;;;;;0.68;0.68;;;;;;;27.91;62.41;99010.59;6066441;23;20038;-92
2023/07/01 11:34:15;;;;;;;1.42;1.33;;;;;;;27.90;63.20;99005.50;6114867;23;20018;-93
2023/07/01 11:36:44;;;;;;;2.03;1.35;;;;;;;28.04;61.81;99001.00;6090591;23;20028;-94